sensor_id;sensor_type;location;lat;lon;timestamp;pressure;altitude;pressure_sealevel;temperature;humidity
59367;BME280;45163;47.690;11.770;2023-03-04T00:01:48;93637.69;;;-0.86;100.00
59367;BME280;45163;47.690;11.770;2023-03-04T00:04:15;93641.84;;;-0.89;100.00
59367;BME280;45163;47.690;11.770;2023-03-04T00:06:41;93640.59;;;-0.95;100.00
59367;BME280;45163;47.690;11.770;2023-03-04T00:09:07;93648.56;;;-0.98;100.00
59367;BME280;45163;47.690;11.770;2023-03-04T00:11:33;93644.66;;;-1.01;100.00
59367;BME280;45163;47.690;11.770;2023-03-04T00:13:59;93642.75;;;-1.01;100.00
59367;BME280;45163;47.690;11.770;2023-03-04T00:16:25;93653.84;;;-1.02;100.00
59367;BME280;45163;47.690;11.770;2023-03-04T00:18:55;93650.81;;;-1.01;100.00
59367;BME280;45163;47.690;11.770;2023-03-04T00:21:22;93653.00;;;-1.06;100.00
59367;BME280;45163;47.690;11.770;2023-03-04T00:23:49;93650.25;;;-1.10;100.00
59367;BME280;45163;47.690;11.770;2023-03-04T00:26:16;93644.03;;;-1.14;100.00
59367;BME280;45163;47.690;11.770;2023-03-04T00:28:42;93643.63;;;-1.16;100.00
59367;BME280;45163;47.690;11.770;2023-03-04T00:31:09;93647.84;;;-1.15;100.00
59367;BME280;45163;47.690;11.770;2023-03-04T00:33:35;93643.34;;;-1.11;100.00
59367;BME280;45163;47.690;11.770;2023-03-04T00:36:02;93646.38;;;-1.12;100.00
59367;BME280;45163;47.690;11.770;2023-03-04T00:38:29;93645.94;;;-1.14;100.00
59367;BME280;45163;47.690;11.770;2023-03-04T00:40:55;93644.69;;;-1.20;100.00
59367;BME280;45163;47.690;11.770;2023-03-04T00:43:21;93639.25;;;-1.24;100.00
59367;BME280;45163;47.690;11.770;2023-03-04T00:45:47;93641.56;;;-1.22;100.00
59367;BME280;45163;47.690;11.770;2023-03-04T00:48:13;93645.38;;;-1.23;100.00
59367;BME280;45163;47.690;11.770;2023-03-04T00:50:42;93645.16;;;-1.34;100.00
59367;BME280;45163;47.690;11.770;2023-03-04T00:53:08;93646.91;;;-1.42;100.00
59367;BME280;45163;47.690;11.770;2023-03-04T00:55:35;93650.38;;;-1.41;100.00
59367;BME280;45163;47.690;11.770;2023-03-04T00:58:01;93640.75;;;-1.42;100.00
59367;BME280;45163;47.690;11.770;2023-03-04T01:00:27;93634.31;;;-1.41;100.00
59367;BME280;45163;47.690;11.770;2023-03-04T01:02:53;93638.03;;;-1.46;100.00
59367;BME280;45163;47.690;11.770;2023-03-04T01:05:19;93634.56;;;-1.46;100.00
59367;BME280;45163;47.690;11.770;2023-03-04T01:07:45;93633.78;;;-1.47;100.00
59367;BME280;45163;47.690;11.770;2023-03-04T01:10:13;93635.63;;;-1.51;100.00
59367;BME280;45163;47.690;11.770;2023-03-04T01:12:39;93635.56;;;-1.55;100.00
59367;BME280;45163;47.690;11.770;2023-03-04T01:15:07;93636.34;;;-1.54;100.00
59367;BME280;45163;47.690;11.770;2023-03-04T01:17:34;93631.19;;;-1.63;100.00
59367;BME280;45163;47.690;11.770;2023-03-04T01:20:00;93620.03;;;-1.65;100.00
59367;BME280;45163;47.690;11.770;2023-03-04T01:22:26;93618.59;;;-1.78;100.00
59367;BME280;45163;47.690;11.770;2023-03-04T01:24:52;93617.75;;;-1.82;100.00
59367;BME280;45163;47.690;11.770;2023-03-04T01:27:18;93611.25;;;-1.81;100.00
59367;BME280;45163;47.690;11.770;2023-03-04T01:29:44;93612.66;;;-1.87;100.00
59367;BME280;45163;47.690;11.770;2023-03-04T01:32:10;93615.25;;;-1.91;100.00
59367;BME280;45163;47.690;11.770;2023-03-04T01:34:36;93612.84;;;-1.96;100.00
59367;BME280;45163;47.690;11.770;2023-03-04T01:37:02;93603.97;;;-2.00;100.00
59367;BME280;45163;47.690;11.770;2023-03-04T01:39:28;93604.50;;;-2.10;100.00
59367;BME280;45163;47.690;11.770;2023-03-04T01:41:54;93597.59;;;-2.11;100.00
59367;BME280;45163;47.690;11.770;2023-03-04T01:44:20;93604.75;;;-2.15;100.00
59367;BME280;45163;47.690;11.770;2023-03-04T01:46:49;93608.47;;;-2.20;100.00
59367;BME280;45163;47.690;11.770;2023-03-04T01:49:16;93601.91;;;-2.22;100.00
59367;BME280;45163;47.690;11.770;2023-03-04T01:51:44;93600.19;;;-2.31;100.00
59367;BME280;45163;47.690;11.770;2023-03-04T01:54:11;93595.13;;;-2.36;100.00
59367;BME280;45163;47.690;11.770;2023-03-04T01:56:38;93597.09;;;-2.33;100.00
59367;BME280;45163;47.690;11.770;2023-03-04T01:59:25;93594.34;;;-2.36;100.00
59367;BME280;45163;47.690;11.770;2023-03-04T02:01:54;93589.00;;;-2.36;100.00
59367;BME280;45163;47.690;11.770;2023-03-04T02:04:23;93585.47;;;-2.40;100.00
59367;BME280;45163;47.690;11.770;2023-03-04T02:06:50;93579.34;;;-2.57;100.00
59367;BME280;45163;47.690;11.770;2023-03-04T02:09:17;93581.75;;;-2.52;100.00
59367;BME280;45163;47.690;11.770;2023-03-04T02:11:45;93577.53;;;-2.53;100.00
59367;BME280;45163;47.690;11.770;2023-03-04T02:14:12;93578.22;;;-2.56;100.00
59367;BME280;45163;47.690;11.770;2023-03-04T02:16:39;93575.13;;;-2.58;100.00
59367;BME280;45163;47.690;11.770;2023-03-04T02:19:13;93578.38;;;-2.64;100.00
59367;BME280;45163;47.690;11.770;2023-03-04T02:21:41;93573.66;;;-2.71;100.00
59367;BME280;45163;47.690;11.770;2023-03-04T02:26:58;93573.22;;;-2.73;100.00
59367;BME280;45163;47.690;11.770;2023-03-04T02:29:24;93574.75;;;-2.72;100.00
59367;BME280;45163;47.690;11.770;2023-03-04T02:31:52;93569.19;;;-2.67;100.00
59367;BME280;45163;47.690;11.770;2023-03-04T02:34:21;93570.09;;;-2.59;100.00
59367;BME280;45163;47.690;11.770;2023-03-04T02:36:50;93563.75;;;-2.55;100.00
59367;BME280;45163;47.690;11.770;2023-03-04T02:41:47;93566.56;;;-2.47;100.00
59367;BME280;45163;47.690;11.770;2023-03-04T02:44:22;93569.00;;;-2.42;100.00
59367;BME280;45163;47.690;11.770;2023-03-04T02:46:50;93566.84;;;-2.37;100.00
59367;BME280;45163;47.690;11.770;2023-03-04T02:49:17;93568.75;;;-2.37;100.00
59367;BME280;45163;47.690;11.770;2023-03-04T02:51:44;93562.44;;;-2.29;100.00
59367;BME280;45163;47.690;11.770;2023-03-04T02:54:19;93561.41;;;-2.24;100.00
59367;BME280;45163;47.690;11.770;2023-03-04T02:56:47;93562.25;;;-2.20;100.00
59367;BME280;45163;47.690;11.770;2023-03-04T02:59:13;93553.47;;;-2.21;100.00
59367;BME280;45163;47.690;11.770;2023-03-04T03:01:39;93560.34;;;-2.20;100.00
59367;BME280;45163;47.690;11.770;2023-03-04T03:04:05;93558.44;;;-2.19;100.00
59367;BME280;45163;47.690;11.770;2023-03-04T03:06:31;93556.91;;;-2.20;100.00
59367;BME280;45163;47.690;11.770;2023-03-04T03:08:57;93556.03;;;-2.24;100.00
59367;BME280;45163;47.690;11.770;2023-03-04T03:11:23;93555.59;;;-2.27;100.00
59367;BME280;45163;47.690;11.770;2023-03-04T03:13:49;93553.28;;;-2.28;100.00
59367;BME280;45163;47.690;11.770;2023-03-04T03:16:15;93556.22;;;-2.33;100.00
59367;BME280;45163;47.690;11.770;2023-03-04T03:18:41;93562.53;;;-2.41;100.00
59367;BME280;45163;47.690;11.770;2023-03-04T03:21:07;93551.31;;;-2.47;100.00
59367;BME280;45163;47.690;11.770;2023-03-04T03:23:34;93550.44;;;-2.51;100.00
59367;BME280;45163;47.690;11.770;2023-03-04T03:26:00;93556.50;;;-2.54;100.00
59367;BME280;45163;47.690;11.770;2023-03-04T03:28:26;93546.16;;;-2.56;100.00
59367;BME280;45163;47.690;11.770;2023-03-04T03:30:53;93552.63;;;-2.57;100.00
59367;BME280;45163;47.690;11.770;2023-03-04T03:33:19;93552.63;;;-2.57;100.00
59367;BME280;45163;47.690;11.770;2023-03-04T03:35:45;93551.06;;;-2.58;100.00
59367;BME280;45163;47.690;11.770;2023-03-04T03:38:11;93554.16;;;-2.56;100.00
59367;BME280;45163;47.690;11.770;2023-03-04T03:40:37;93549.16;;;-2.57;100.00
59367;BME280;45163;47.690;11.770;2023-03-04T03:43:03;93549.94;;;-2.57;100.00
59367;BME280;45163;47.690;11.770;2023-03-04T03:45:29;93550.38;;;-2.55;100.00
59367;BME280;45163;47.690;11.770;2023-03-04T03:47:55;93543.84;;;-2.57;100.00
59367;BME280;45163;47.690;11.770;2023-03-04T03:50:21;93550.22;;;-2.62;100.00
59367;BME280;45163;47.690;11.770;2023-03-04T03:52:47;93549.25;;;-2.69;100.00
59367;BME280;45163;47.690;11.770;2023-03-04T03:55:13;93547.34;;;-2.69;100.00
59367;BME280;45163;47.690;11.770;2023-03-04T03:57:39;93545.13;;;-2.67;100.00
59367;BME280;45163;47.690;11.770;2023-03-04T04:00:05;93549.25;;;-2.69;100.00
59367;BME280;45163;47.690;11.770;2023-03-04T04:02:32;93549.16;;;-2.73;100.00
59367;BME280;45163;47.690;11.770;2023-03-04T04:04:58;93549.94;;;-2.72;100.00
59367;BME280;45163;47.690;11.770;2023-03-04T04:07:24;93549.06;;;-2.77;100.00
59367;BME280;45163;47.690;11.770;2023-03-04T04:09:50;93549.34;;;-2.82;100.00
59367;BME280;45163;47.690;11.770;2023-03-04T04:12:17;93548.22;;;-2.81;100.00
59367;BME280;45163;47.690;11.770;2023-03-04T04:14:44;93550.81;;;-2.84;100.00
59367;BME280;45163;47.690;11.770;2023-03-04T04:17:10;93548.91;;;-2.84;100.00
59367;BME280;45163;47.690;11.770;2023-03-04T04:19:36;93548.91;;;-2.84;100.00
59367;BME280;45163;47.690;11.770;2023-03-04T04:22:03;93550.97;;;-2.77;100.00
59367;BME280;45163;47.690;11.770;2023-03-04T04:24:29;93542.69;;;-2.72;100.00
59367;BME280;45163;47.690;11.770;2023-03-04T04:26:55;93547.88;;;-2.79;100.00
59367;BME280;45163;47.690;11.770;2023-03-04T04:29:22;93552.38;;;-2.83;100.00
59367;BME280;45163;47.690;11.770;2023-03-04T04:31:48;93549.94;;;-2.88;100.00
59367;BME280;45163;47.690;11.770;2023-03-04T04:34:14;93552.19;;;-2.90;100.00
59367;BME280;45163;47.690;11.770;2023-03-04T04:36:40;93545.28;;;-2.91;100.00
59367;BME280;45163;47.690;11.770;2023-03-04T04:39:06;93549.31;;;-2.97;100.00
59367;BME280;45163;47.690;11.770;2023-03-04T04:41:40;93545.88;;;-2.98;100.00
59367;BME280;45163;47.690;11.770;2023-03-04T04:44:07;93549.56;;;-3.03;100.00
59367;BME280;45163;47.690;11.770;2023-03-04T04:46:34;93549.06;;;-3.08;100.00
59367;BME280;45163;47.690;11.770;2023-03-04T04:49:00;93550.88;;;-3.12;100.00
59367;BME280;45163;47.690;11.770;2023-03-04T04:51:27;93553.44;;;-3.16;100.00
59367;BME280;45163;47.690;11.770;2023-03-04T04:53:53;93542.25;;;-3.21;100.00
59367;BME280;45163;47.690;11.770;2023-03-04T04:56:21;93559.53;;;-3.15;100.00
59367;BME280;45163;47.690;11.770;2023-03-04T04:58:48;93555.22;;;-3.20;100.00
59367;BME280;45163;47.690;11.770;2023-03-04T05:01:14;93556.00;;;-3.19;100.00
59367;BME280;45163;47.690;11.770;2023-03-04T05:03:40;93551.63;;;-3.12;100.00
59367;BME280;45163;47.690;11.770;2023-03-04T05:06:08;93557.75;;;-3.11;100.00
59367;BME280;45163;47.690;11.770;2023-03-04T05:08:35;93547.66;;;-3.18;100.00
59367;BME280;45163;47.690;11.770;2023-03-04T05:11:03;93555.59;;;-3.21;100.00
59367;BME280;45163;47.690;11.770;2023-03-04T05:13:30;93550.16;;;-3.25;100.00
59367;BME280;45163;47.690;11.770;2023-03-04T05:15:56;93555.97;;;-3.35;100.00
59367;BME280;45163;47.690;11.770;2023-03-04T05:18:23;93557.84;;;-3.36;100.00
59367;BME280;45163;47.690;11.770;2023-03-04T05:20:54;93551.91;;;-3.45;100.00
59367;BME280;45163;47.690;11.770;2023-03-04T05:23:21;93549.38;;;-3.54;100.00
59367;BME280;45163;47.690;11.770;2023-03-04T05:25:47;93547.38;;;-3.57;100.00
59367;BME280;45163;47.690;11.770;2023-03-04T05:28:14;93551.84;;;-3.61;100.00
59367;BME280;45163;47.690;11.770;2023-03-04T05:30:41;93558.28;;;-3.62;100.00
59367;BME280;45163;47.690;11.770;2023-03-04T05:33:09;93553.22;;;-3.67;100.00
59367;BME280;45163;47.690;11.770;2023-03-04T05:35:37;93554.31;;;-3.68;100.00
59367;BME280;45163;47.690;11.770;2023-03-04T05:38:04;93546.53;;;-3.73;100.00
59367;BME280;45163;47.690;11.770;2023-03-04T05:40:31;93554.91;;;-3.74;100.00
59367;BME280;45163;47.690;11.770;2023-03-04T05:42:57;93548.69;;;-3.79;100.00
59367;BME280;45163;47.690;11.770;2023-03-04T05:45:25;93560.69;;;-3.85;100.00
59367;BME280;45163;47.690;11.770;2023-03-04T05:47:51;93557.25;;;-3.85;100.00
59367;BME280;45163;47.690;11.770;2023-03-04T05:50:18;93561.38;;;-3.88;100.00
59367;BME280;45163;47.690;11.770;2023-03-04T05:52:44;93560.69;;;-3.85;100.00
59367;BME280;45163;47.690;11.770;2023-03-04T05:55:10;93566.47;;;-3.83;100.00
59367;BME280;45163;47.690;11.770;2023-03-04T05:57:36;93557.91;;;-3.76;100.00
59367;BME280;45163;47.690;11.770;2023-03-04T06:00:04;93561.53;;;-3.68;100.00
59367;BME280;45163;47.690;11.770;2023-03-04T06:02:30;93564.19;;;-3.68;100.00
59367;BME280;45163;47.690;11.770;2023-03-04T06:04:56;93567.63;;;-3.68;100.00
59367;BME280;45163;47.690;11.770;2023-03-04T06:07:22;93566.78;;;-3.72;100.00
59367;BME280;45163;47.690;11.770;2023-03-04T06:09:48;93568.44;;;-3.67;100.00
59367;BME280;45163;47.690;11.770;2023-03-04T06:12:14;93576.63;;;-3.60;100.00
59367;BME280;45163;47.690;11.770;2023-03-04T06:14:40;93567.38;;;-3.51;100.00
59367;BME280;45163;47.690;11.770;2023-03-04T06:17:06;93574.88;;;-3.40;100.00
59367;BME280;45163;47.690;11.770;2023-03-04T06:19:32;93580.69;;;-3.38;100.00
59367;BME280;45163;47.690;11.770;2023-03-04T06:21:58;93587.97;;;-3.35;100.00
59367;BME280;45163;47.690;11.770;2023-03-04T06:24:24;93594.66;;;-3.29;100.00
59367;BME280;45163;47.690;11.770;2023-03-04T06:26:50;93602.75;;;-3.26;100.00
59367;BME280;45163;47.690;11.770;2023-03-04T06:29:16;93604.31;;;-3.24;100.00
59367;BME280;45163;47.690;11.770;2023-03-04T06:31:42;93602.78;;;-3.10;100.00
59367;BME280;45163;47.690;11.770;2023-03-04T06:34:08;93605.28;;;-3.01;100.00
59367;BME280;45163;47.690;11.770;2023-03-04T06:36:35;93617.81;;;-2.89;100.00
59367;BME280;45163;47.690;11.770;2023-03-04T06:39:02;93608.53;;;-2.80;100.00
59367;BME280;45163;47.690;11.770;2023-03-04T06:41:29;93610.44;;;-2.64;100.00
59367;BME280;45163;47.690;11.770;2023-03-04T06:43:55;93609.94;;;-2.54;100.00
59367;BME280;45163;47.690;11.770;2023-03-04T06:46:21;93618.66;;;-2.41;100.00
59367;BME280;45163;47.690;11.770;2023-03-04T06:48:48;93609.53;;;-2.24;100.00
59367;BME280;45163;47.690;11.770;2023-03-04T06:51:14;93618.31;;;-2.08;100.00
59367;BME280;45163;47.690;11.770;2023-03-04T06:53:41;93615.44;;;-1.99;100.00
59367;BME280;45163;47.690;11.770;2023-03-04T06:56:08;93611.94;;;-1.84;100.00
59367;BME280;45163;47.690;11.770;2023-03-04T06:58:35;93620.59;;;-1.91;100.00
59367;BME280;45163;47.690;11.770;2023-03-04T07:01:21;93615.91;;;-1.78;100.00
59367;BME280;45163;47.690;11.770;2023-03-04T07:03:48;93617.47;;;-1.77;100.00
59367;BME280;45163;47.690;11.770;2023-03-04T07:06:17;93616.50;;;-1.69;100.00
59367;BME280;45163;47.690;11.770;2023-03-04T07:08:44;93616.81;;;-1.55;100.00
59367;BME280;45163;47.690;11.770;2023-03-04T07:11:11;93622.19;;;-1.55;100.00
59367;BME280;45163;47.690;11.770;2023-03-04T07:13:37;93622.47;;;-1.40;100.00
59367;BME280;45163;47.690;11.770;2023-03-04T07:16:04;93623.97;;;-1.23;100.00
59367;BME280;45163;47.690;11.770;2023-03-04T07:18:31;93619.59;;;-1.12;100.00
59367;BME280;45163;47.690;11.770;2023-03-04T07:20:57;93621.69;;;-1.02;100.00
59367;BME280;45163;47.690;11.770;2023-03-04T07:23:22;93616.91;;;-0.93;100.00
59367;BME280;45163;47.690;11.770;2023-03-04T07:25:49;93615.59;;;-0.80;100.00
59367;BME280;45163;47.690;11.770;2023-03-04T07:28:16;93627.50;;;-0.58;100.00
59367;BME280;45163;47.690;11.770;2023-03-04T07:30:42;93621.22;;;-0.46;100.00
59367;BME280;45163;47.690;11.770;2023-03-04T07:33:08;93633.84;;;-0.23;100.00
59367;BME280;45163;47.690;11.770;2023-03-04T07:35:34;93622.63;;;-0.06;100.00
59367;BME280;45163;47.690;11.770;2023-03-04T07:38:00;93620.91;;;0.05;100.00
59367;BME280;45163;47.690;11.770;2023-03-04T07:40:26;93620.94;;;0.09;100.00
59367;BME280;45163;47.690;11.770;2023-03-04T07:42:54;93620.31;;;0.19;100.00
59367;BME280;45163;47.690;11.770;2023-03-04T07:45:20;93622.69;;;0.24;100.00
59367;BME280;45163;47.690;11.770;2023-03-04T07:47:47;93621.16;;;0.23;100.00
59367;BME280;45163;47.690;11.770;2023-03-04T07:50:13;93626.56;;;0.27;100.00
59367;BME280;45163;47.690;11.770;2023-03-04T07:52:42;93630.53;;;0.36;100.00
59367;BME280;45163;47.690;11.770;2023-03-04T07:55:10;93619.47;;;0.38;100.00
59367;BME280;45163;47.690;11.770;2023-03-04T07:57:41;93626.28;;;0.62;100.00
59367;BME280;45163;47.690;11.770;2023-03-04T08:00:10;93622.00;;;0.87;100.00
59367;BME280;45163;47.690;11.770;2023-03-04T08:02:36;93621.59;;;1.15;100.00
59367;BME280;45163;47.690;11.770;2023-03-04T08:05:02;93620.31;;;1.39;100.00
59367;BME280;45163;47.690;11.770;2023-03-04T08:07:28;93623.22;;;1.61;100.00
59367;BME280;45163;47.690;11.770;2023-03-04T08:09:54;93619.84;;;1.67;100.00
59367;BME280;45163;47.690;11.770;2023-03-04T08:12:20;93610.69;;;1.79;100.00
59367;BME280;45163;47.690;11.770;2023-03-04T08:14:46;93609.22;;;1.85;100.00
59367;BME280;45163;47.690;11.770;2023-03-04T08:17:12;93607.28;;;1.82;100.00
59367;BME280;45163;47.690;11.770;2023-03-04T08:19:39;93599.69;;;1.95;100.00
59367;BME280;45163;47.690;11.770;2023-03-04T08:22:05;93595.44;;;1.90;100.00
59367;BME280;45163;47.690;11.770;2023-03-04T08:24:32;93602.34;;;2.39;100.00
59367;BME280;45163;47.690;11.770;2023-03-04T08:26:58;93598.22;;;3.61;100.00
59367;BME280;45163;47.690;11.770;2023-03-04T08:29:24;93587.00;;;4.73;100.00
59367;BME280;45163;47.690;11.770;2023-03-04T08:31:51;93590.63;;;5.40;100.00
59367;BME280;45163;47.690;11.770;2023-03-04T08:34:24;93578.53;;;6.18;100.00
59367;BME280;45163;47.690;11.770;2023-03-04T08:36:50;93563.69;;;6.34;100.00
59367;BME280;45163;47.690;11.770;2023-03-04T08:39:17;93564.03;;;7.15;100.00
59367;BME280;45163;47.690;11.770;2023-03-04T08:41:44;93552.75;;;7.16;100.00
59367;BME280;45163;47.690;11.770;2023-03-04T08:44:10;93552.13;;;8.17;100.00
59367;BME280;45163;47.690;11.770;2023-03-04T08:46:37;93542.56;;;8.79;100.00
59367;BME280;45163;47.690;11.770;2023-03-04T08:49:04;93542.16;;;9.01;100.00
59367;BME280;45163;47.690;11.770;2023-03-04T08:51:30;93545.13;;;9.46;100.00
59367;BME280;45163;47.690;11.770;2023-03-04T08:53:56;93544.69;;;9.67;100.00
59367;BME280;45163;47.690;11.770;2023-03-04T08:56:23;93551.06;;;10.62;100.00
59367;BME280;45163;47.690;11.770;2023-03-04T08:58:49;93538.78;;;11.00;100.00
59367;BME280;45163;47.690;11.770;2023-03-04T09:01:15;93538.53;;;11.23;100.00
59367;BME280;45163;47.690;11.770;2023-03-04T09:03:41;93529.63;;;10.61;100.00
59367;BME280;45163;47.690;11.770;2023-03-04T09:06:08;93534.13;;;10.38;100.00
59367;BME280;45163;47.690;11.770;2023-03-04T09:08:35;93535.13;;;10.44;100.00
59367;BME280;45163;47.690;11.770;2023-03-04T09:11:01;93538.16;;;9.97;100.00
59367;BME280;45163;47.690;11.770;2023-03-04T09:13:29;93531.59;;;10.77;100.00
59367;BME280;45163;47.690;11.770;2023-03-04T09:15:56;93530.22;;;11.68;100.00
59367;BME280;45163;47.690;11.770;2023-03-04T09:18:23;93533.88;;;10.78;100.00
59367;BME280;45163;47.690;11.770;2023-03-04T09:20:50;93530.06;;;9.94;100.00
59367;BME280;45163;47.690;11.770;2023-03-04T09:23:17;93545.00;;;9.33;100.00
59367;BME280;45163;47.690;11.770;2023-03-04T09:25:44;93534.72;;;9.77;100.00
59367;BME280;45163;47.690;11.770;2023-03-04T09:28:12;93526.34;;;11.11;100.00
59367;BME280;45163;47.690;11.770;2023-03-04T09:30:39;93519.47;;;11.74;100.00
59367;BME280;45163;47.690;11.770;2023-03-04T09:33:05;93520.31;;;11.87;100.00
59367;BME280;45163;47.690;11.770;2023-03-04T09:35:31;93515.19;;;12.50;100.00
59367;BME280;45163;47.690;11.770;2023-03-04T09:37:58;93517.81;;;13.44;100.00
59367;BME280;45163;47.690;11.770;2023-03-04T09:40:32;93520.25;;;13.42;100.00
59367;BME280;45163;47.690;11.770;2023-03-04T09:43:02;93518.19;;;14.27;100.00
59367;BME280;45163;47.690;11.770;2023-03-04T09:45:40;93515.19;;;14.34;100.00
59367;BME280;45163;47.690;11.770;2023-03-04T09:48:12;93516.34;;;13.31;96.56
59367;BME280;45163;47.690;11.770;2023-03-04T09:50:59;93506.59;;;14.63;94.49
59367;BME280;45163;47.690;11.770;2023-03-04T09:54:35;93510.56;;;14.72;90.88
59367;BME280;45163;47.690;11.770;2023-03-04T09:56:27;93512.72;;;13.34;88.43
59367;BME280;45163;47.690;11.770;2023-03-04T09:59:05;93513.91;;;11.65;99.01
59367;BME280;45163;47.690;11.770;2023-03-04T10:04:21;93507.78;;;12.37;100.00
59367;BME280;45163;47.690;11.770;2023-03-04T10:06:51;93517.38;;;12.89;100.00
59367;BME280;45163;47.690;11.770;2023-03-04T10:09:20;93497.94;;;12.27;96.04
59367;BME280;45163;47.690;11.770;2023-03-04T10:12:00;93499.91;;;11.50;98.56
59367;BME280;45163;47.690;11.770;2023-03-04T10:14:33;93500.97;;;10.69;100.00
59367;BME280;45163;47.690;11.770;2023-03-04T10:17:04;93496.75;;;10.19;100.00
59367;BME280;45163;47.690;11.770;2023-03-04T10:23:04;93503.44;;;8.50;100.00
59367;BME280;45163;47.690;11.770;2023-03-04T10:25:14;93497.28;;;8.22;100.00
59367;BME280;45163;47.690;11.770;2023-03-04T10:27:43;93489.22;;;8.15;100.00
59367;BME280;45163;47.690;11.770;2023-03-04T10:33:22;93489.88;;;7.76;100.00
59367;BME280;45163;47.690;11.770;2023-03-04T10:38:38;93485.16;;;8.27;100.00
59367;BME280;45163;47.690;11.770;2023-03-04T10:41:16;93491.19;;;8.14;100.00
59367;BME280;45163;47.690;11.770;2023-03-04T10:43:59;93492.16;;;8.71;100.00
59367;BME280;45163;47.690;11.770;2023-03-04T10:46:26;93492.38;;;8.13;100.00
59367;BME280;45163;47.690;11.770;2023-03-04T10:48:53;93495.44;;;7.92;100.00
59367;BME280;45163;47.690;11.770;2023-03-04T10:51:21;93488.63;;;8.27;100.00
59367;BME280;45163;47.690;11.770;2023-03-04T10:53:51;93493.00;;;7.74;100.00
59367;BME280;45163;47.690;11.770;2023-03-04T11:07:19;93475.78;;;12.47;93.75
59367;BME280;45163;47.690;11.770;2023-03-04T11:09:45;93479.78;;;13.12;90.34
59367;BME280;45163;47.690;11.770;2023-03-04T11:12:14;93471.28;;;13.32;79.39
59367;BME280;45163;47.690;11.770;2023-03-04T11:14:49;93469.25;;;13.85;76.21
59367;BME280;45163;47.690;11.770;2023-03-04T11:17:18;93473.63;;;13.42;71.10
59367;BME280;45163;47.690;11.770;2023-03-04T11:22:24;93457.19;;;10.43;84.21
59367;BME280;45163;47.690;11.770;2023-03-04T11:24:59;93465.13;;;10.21;93.31
59367;BME280;45163;47.690;11.770;2023-03-04T11:27:37;93455.81;;;11.73;97.01
59367;BME280;45163;47.690;11.770;2023-03-04T11:30:26;93455.53;;;13.23;80.49
59367;BME280;45163;47.690;11.770;2023-03-04T11:33:03;93449.25;;;14.25;76.79
59367;BME280;45163;47.690;11.770;2023-03-04T11:36:01;93457.94;;;13.74;66.58
59367;BME280;45163;47.690;11.770;2023-03-04T11:38:32;93445.16;;;14.48;62.19
59367;BME280;45163;47.690;11.770;2023-03-04T11:41:05;93445.19;;;15.31;61.14
59367;BME280;45163;47.690;11.770;2023-03-04T11:43:40;93455.69;;;14.40;59.14
59367;BME280;45163;47.690;11.770;2023-03-04T11:57:33;93427.41;;;16.50;56.25
59367;BME280;45163;47.690;11.770;2023-03-04T12:14:36;93419.56;;;15.76;55.04
59367;BME280;45163;47.690;11.770;2023-03-04T12:17:12;93420.84;;;15.90;55.68
59367;BME280;45163;47.690;11.770;2023-03-04T12:31:02;93411.19;;;14.64;55.25
59367;BME280;45163;47.690;11.770;2023-03-04T12:38:58;93405.97;;;14.48;54.43
59367;BME280;45163;47.690;11.770;2023-03-04T12:46:36;93399.06;;;12.82;56.32
59367;BME280;45163;47.690;11.770;2023-03-04T12:49:46;93394.00;;;12.36;61.24
59367;BME280;45163;47.690;11.770;2023-03-04T12:52:41;93401.59;;;11.85;61.59
59367;BME280;45163;47.690;11.770;2023-03-04T12:55:13;93393.41;;;11.46;65.39
59367;BME280;45163;47.690;11.770;2023-03-04T12:57:41;93393.19;;;11.54;66.21
59367;BME280;45163;47.690;11.770;2023-03-04T13:00:34;93394.31;;;12.16;61.84
59367;BME280;45163;47.690;11.770;2023-03-04T13:03:20;93402.56;;;12.38;62.39
59367;BME280;45163;47.690;11.770;2023-03-04T13:11:49;93391.09;;;12.53;61.69
59367;BME280;45163;47.690;11.770;2023-03-04T13:14:23;93386.47;;;11.80;63.53
59367;BME280;45163;47.690;11.770;2023-03-04T13:16:54;93384.88;;;12.52;62.23
59367;BME280;45163;47.690;11.770;2023-03-04T13:22:29;93374.00;;;13.45;58.25
59367;BME280;45163;47.690;11.770;2023-03-04T13:24:59;93374.63;;;13.90;55.14
59367;BME280;45163;47.690;11.770;2023-03-04T13:27:47;93382.38;;;12.89;56.94
59367;BME280;45163;47.690;11.770;2023-03-04T13:43:36;93364.25;;;12.60;63.86
59367;BME280;45163;47.690;11.770;2023-03-04T13:53:54;93364.50;;;13.28;58.20
59367;BME280;45163;47.690;11.770;2023-03-04T13:56:32;93354.91;;;13.02;59.58
59367;BME280;45163;47.690;11.770;2023-03-04T14:01:35;93340.41;;;11.79;62.92
59367;BME280;45163;47.690;11.770;2023-03-04T14:04:12;93350.47;;;11.82;63.82
59367;BME280;45163;47.690;11.770;2023-03-04T14:06:43;93344.09;;;10.99;69.39
59367;BME280;45163;47.690;11.770;2023-03-04T14:09:14;93339.81;;;10.85;69.60
59367;BME280;45163;47.690;11.770;2023-03-04T14:11:41;93338.56;;;10.48;73.61
59367;BME280;45163;47.690;11.770;2023-03-04T14:14:13;93335.06;;;10.47;75.02
59367;BME280;45163;47.690;11.770;2023-03-04T14:16:51;93337.50;;;10.58;75.01
59367;BME280;45163;47.690;11.770;2023-03-04T14:19:29;93334.47;;;11.07;70.33
59367;BME280;45163;47.690;11.770;2023-03-04T14:21:56;93329.81;;;10.53;73.87
59367;BME280;45163;47.690;11.770;2023-03-04T14:24:24;93335.50;;;10.17;81.05
59367;BME280;45163;47.690;11.770;2023-03-04T14:27:05;93328.28;;;9.94;78.89
59367;BME280;45163;47.690;11.770;2023-03-04T14:29:35;93331.59;;;9.40;88.42
59367;BME280;45163;47.690;11.770;2023-03-04T14:32:03;93320.44;;;9.34;90.35
59367;BME280;45163;47.690;11.770;2023-03-04T14:34:35;93321.41;;;8.75;92.77
59367;BME280;45163;47.690;11.770;2023-03-04T14:37:14;93312.16;;;8.53;97.29
59367;BME280;45163;47.690;11.770;2023-03-04T14:39:44;93320.66;;;8.15;99.50
59367;BME280;45163;47.690;11.770;2023-03-04T14:42:13;93313.56;;;8.21;99.69